sensor_id;sensor_type;location;lat;lon;timestamp;P1;durP1;ratioP1;P2;durP2;ratioP2
15629;SDS011;7914;50.842;0.166;2022-10-16T00:01:23;1.10;;;1.10;;
15629;SDS011;7914;50.842;0.166;2022-10-16T00:03:51;1.00;;;1.00;;
15629;SDS011;7914;50.842;0.166;2022-10-16T00:06:18;1.00;;;1.00;;
15629;SDS011;7914;50.842;0.166;2022-10-16T00:08:44;1.10;;;1.10;;
15629;SDS011;7914;50.842;0.166;2022-10-16T00:11:12;1.17;;;1.17;;
15629;SDS011;7914;50.842;0.166;2022-10-16T00:13:42;1.27;;;1.27;;
15629;SDS011;7914;50.842;0.166;2022-10-16T00:16:10;1.20;;;1.20;;
15629;SDS011;7914;50.842;0.166;2022-10-16T00:18:37;1.20;;;1.20;;
15629;SDS011;7914;50.842;0.166;2022-10-16T00:21:10;1.10;;;1.10;;
15629;SDS011;7914;50.842;0.166;2022-10-16T00:23:41;1.20;;;1.20;;
15629;SDS011;7914;50.842;0.166;2022-10-16T00:26:09;1.20;;;1.20;;
15629;SDS011;7914;50.842;0.166;2022-10-16T00:28:38;1.20;;;1.20;;
15629;SDS011;7914;50.842;0.166;2022-10-16T00:31:04;1.20;;;1.20;;
15629;SDS011;7914;50.842;0.166;2022-10-16T00:33:35;1.30;;;1.30;;
15629;SDS011;7914;50.842;0.166;2022-10-16T00:36:03;1.30;;;1.30;;
15629;SDS011;7914;50.842;0.166;2022-10-16T00:38:30;1.30;;;1.30;;
15629;SDS011;7914;50.842;0.166;2022-10-16T00:40:56;1.20;;;1.20;;
15629;SDS011;7914;50.842;0.166;2022-10-16T00:46:22;1.00;;;1.00;;
15629;SDS011;7914;50.842;0.166;2022-10-16T00:49:10;1.20;;;1.20;;
15629;SDS011;7914;50.842;0.166;2022-10-16T00:51:41;1.10;;;1.10;;
15629;SDS011;7914;50.842;0.166;2022-10-16T00:54:28;1.20;;;1.20;;
15629;SDS011;7914;50.842;0.166;2022-10-16T00:56:56;1.20;;;1.20;;
15629;SDS011;7914;50.842;0.166;2022-10-16T00:59:27;1.30;;;1.30;;
15629;SDS011;7914;50.842;0.166;2022-10-16T01:02:00;1.20;;;1.20;;
15629;SDS011;7914;50.842;0.166;2022-10-16T01:04:26;1.20;;;1.20;;
15629;SDS011;7914;50.842;0.166;2022-10-16T01:12:46;1.20;;;1.20;;
15629;SDS011;7914;50.842;0.166;2022-10-16T01:15:42;1.13;;;1.13;;
15629;SDS011;7914;50.842;0.166;2022-10-16T01:18:20;1.13;;;1.13;;
15629;SDS011;7914;50.842;0.166;2022-10-16T01:26:41;1.40;;;1.40;;
15629;SDS011;7914;50.842;0.166;2022-10-16T01:37:38;1.40;;;1.40;;
15629;SDS011;7914;50.842;0.166;2022-10-16T01:40:06;1.40;;;1.40;;
15629;SDS011;7914;50.842;0.166;2022-10-16T01:42:37;1.60;;;1.60;;
15629;SDS011;7914;50.842;0.166;2022-10-16T01:45:06;1.40;;;1.40;;
15629;SDS011;7914;50.842;0.166;2022-10-16T01:47:33;1.30;;;1.30;;
15629;SDS011;7914;50.842;0.166;2022-10-16T01:50:02;1.20;;;1.20;;
15629;SDS011;7914;50.842;0.166;2022-10-16T01:52:34;1.20;;;1.20;;
15629;SDS011;7914;50.842;0.166;2022-10-16T01:55:02;1.20;;;1.20;;
15629;SDS011;7914;50.842;0.166;2022-10-16T01:57:31;1.13;;;1.13;;
15629;SDS011;7914;50.842;0.166;2022-10-16T02:00:00;1.10;;;1.10;;
15629;SDS011;7914;50.842;0.166;2022-10-16T02:02:29;1.10;;;1.10;;
15629;SDS011;7914;50.842;0.166;2022-10-16T02:05:05;1.10;;;1.10;;
15629;SDS011;7914;50.842;0.166;2022-10-16T02:07:38;1.10;;;1.10;;
15629;SDS011;7914;50.842;0.166;2022-10-16T02:10:04;1.10;;;1.10;;
15629;SDS011;7914;50.842;0.166;2022-10-16T02:12:33;1.00;;;1.00;;
15629;SDS011;7914;50.842;0.166;2022-10-16T02:15:01;1.00;;;1.00;;
15629;SDS011;7914;50.842;0.166;2022-10-16T02:17:28;1.10;;;1.10;;
15629;SDS011;7914;50.842;0.166;2022-10-16T02:19:54;1.07;;;1.07;;
15629;SDS011;7914;50.842;0.166;2022-10-16T02:22:30;1.00;;;1.00;;
15629;SDS011;7914;50.842;0.166;2022-10-16T02:25:22;0.90;;;0.90;;
15629;SDS011;7914;50.842;0.166;2022-10-16T02:28:03;0.90;;;0.90;;
15629;SDS011;7914;50.842;0.166;2022-10-16T02:30:41;1.07;;;1.07;;
15629;SDS011;7914;50.842;0.166;2022-10-16T02:33:10;1.00;;;1.00;;
15629;SDS011;7914;50.842;0.166;2022-10-16T02:35:38;1.10;;;1.10;;
15629;SDS011;7914;50.842;0.166;2022-10-16T02:38:05;0.90;;;0.90;;
15629;SDS011;7914;50.842;0.166;2022-10-16T02:40:32;1.10;;;1.10;;
15629;SDS011;7914;50.842;0.166;2022-10-16T02:42:58;1.10;;;1.10;;
15629;SDS011;7914;50.842;0.166;2022-10-16T02:45:24;1.20;;;1.20;;
15629;SDS011;7914;50.842;0.166;2022-10-16T02:47:50;1.10;;;1.10;;
15629;SDS011;7914;50.842;0.166;2022-10-16T02:50:16;1.10;;;1.10;;
15629;SDS011;7914;50.842;0.166;2022-10-16T02:52:42;1.10;;;1.10;;
15629;SDS011;7914;50.842;0.166;2022-10-16T02:55:08;1.10;;;1.10;;
15629;SDS011;7914;50.842;0.166;2022-10-16T02:57:33;1.10;;;1.10;;
15629;SDS011;7914;50.842;0.166;2022-10-16T03:00:00;1.00;;;1.00;;
15629;SDS011;7914;50.842;0.166;2022-10-16T03:02:26;0.97;;;0.97;;
15629;SDS011;7914;50.842;0.166;2022-10-16T03:04:51;1.00;;;1.00;;
15629;SDS011;7914;50.842;0.166;2022-10-16T03:07:17;1.10;;;1.10;;
15629;SDS011;7914;50.842;0.166;2022-10-16T03:09:42;1.20;;;1.20;;
15629;SDS011;7914;50.842;0.166;2022-10-16T03:12:08;1.20;;;1.20;;
15629;SDS011;7914;50.842;0.166;2022-10-16T03:14:34;1.03;;;1.03;;
15629;SDS011;7914;50.842;0.166;2022-10-16T03:16:59;1.30;;;1.30;;
15629;SDS011;7914;50.842;0.166;2022-10-16T03:19:25;1.53;;;1.53;;
15629;SDS011;7914;50.842;0.166;2022-10-16T03:21:51;1.50;;;1.50;;
15629;SDS011;7914;50.842;0.166;2022-10-16T03:24:16;1.60;;;1.60;;
15629;SDS011;7914;50.842;0.166;2022-10-16T03:26:42;1.67;;;1.67;;
15629;SDS011;7914;50.842;0.166;2022-10-16T03:29:08;1.60;;;1.60;;
15629;SDS011;7914;50.842;0.166;2022-10-16T03:31:33;1.60;;;1.60;;
15629;SDS011;7914;50.842;0.166;2022-10-16T03:33:59;1.60;;;1.60;;
15629;SDS011;7914;50.842;0.166;2022-10-16T03:36:25;1.60;;;1.60;;
15629;SDS011;7914;50.842;0.166;2022-10-16T03:38:50;1.53;;;1.53;;
15629;SDS011;7914;50.842;0.166;2022-10-16T03:41:16;1.60;;;1.60;;
15629;SDS011;7914;50.842;0.166;2022-10-16T03:43:41;1.60;;;1.60;;
15629;SDS011;7914;50.842;0.166;2022-10-16T03:46:07;1.60;;;1.60;;
15629;SDS011;7914;50.842;0.166;2022-10-16T03:48:33;1.60;;;1.60;;
15629;SDS011;7914;50.842;0.166;2022-10-16T03:50:59;1.60;;;1.60;;
15629;SDS011;7914;50.842;0.166;2022-10-16T03:53:24;1.40;;;1.40;;
15629;SDS011;7914;50.842;0.166;2022-10-16T03:55:50;1.50;;;1.50;;
15629;SDS011;7914;50.842;0.166;2022-10-16T03:58:16;1.40;;;1.40;;
15629;SDS011;7914;50.842;0.166;2022-10-16T04:00:45;1.50;;;1.50;;
15629;SDS011;7914;50.842;0.166;2022-10-16T04:03:12;1.50;;;1.50;;
15629;SDS011;7914;50.842;0.166;2022-10-16T04:05:38;1.63;;;1.63;;
15629;SDS011;7914;50.842;0.166;2022-10-16T04:08:04;1.50;;;1.50;;
15629;SDS011;7914;50.842;0.166;2022-10-16T04:10:30;1.60;;;1.60;;
15629;SDS011;7914;50.842;0.166;2022-10-16T04:12:56;1.60;;;1.60;;
15629;SDS011;7914;50.842;0.166;2022-10-16T04:15:24;1.50;;;1.50;;
15629;SDS011;7914;50.842;0.166;2022-10-16T04:17:51;1.50;;;1.50;;
15629;SDS011;7914;50.842;0.166;2022-10-16T04:20:17;1.50;;;1.50;;
15629;SDS011;7914;50.842;0.166;2022-10-16T04:22:43;1.40;;;1.40;;
15629;SDS011;7914;50.842;0.166;2022-10-16T04:25:09;1.30;;;1.30;;
15629;SDS011;7914;50.842;0.166;2022-10-16T04:27:36;1.30;;;1.30;;
15629;SDS011;7914;50.842;0.166;2022-10-16T04:30:02;1.30;;;1.30;;
15629;SDS011;7914;50.842;0.166;2022-10-16T04:32:28;1.40;;;1.40;;
15629;SDS011;7914;50.842;0.166;2022-10-16T04:34:54;1.37;;;1.37;;
15629;SDS011;7914;50.842;0.166;2022-10-16T04:37:23;1.40;;;1.40;;
15629;SDS011;7914;50.842;0.166;2022-10-16T04:39:50;1.40;;;1.40;;
15629;SDS011;7914;50.842;0.166;2022-10-16T04:42:16;1.40;;;1.40;;
15629;SDS011;7914;50.842;0.166;2022-10-16T04:44:41;1.50;;;1.50;;
15629;SDS011;7914;50.842;0.166;2022-10-16T04:47:07;1.40;;;1.40;;
15629;SDS011;7914;50.842;0.166;2022-10-16T04:49:33;1.43;;;1.43;;
15629;SDS011;7914;50.842;0.166;2022-10-16T04:51:59;1.30;;;1.30;;
15629;SDS011;7914;50.842;0.166;2022-10-16T04:54:24;1.30;;;1.30;;
15629;SDS011;7914;50.842;0.166;2022-10-16T04:56:50;1.10;;;1.10;;
15629;SDS011;7914;50.842;0.166;2022-10-16T04:59:17;1.20;;;1.20;;
15629;SDS011;7914;50.842;0.166;2022-10-16T05:01:43;1.30;;;1.30;;
15629;SDS011;7914;50.842;0.166;2022-10-16T05:04:09;1.20;;;1.20;;
15629;SDS011;7914;50.842;0.166;2022-10-16T05:06:35;1.30;;;1.30;;
15629;SDS011;7914;50.842;0.166;2022-10-16T05:09:02;1.23;;;1.23;;
15629;SDS011;7914;50.842;0.166;2022-10-16T05:11:28;1.20;;;1.20;;
15629;SDS011;7914;50.842;0.166;2022-10-16T05:13:53;1.30;;;1.30;;
15629;SDS011;7914;50.842;0.166;2022-10-16T05:16:19;1.10;;;1.10;;
15629;SDS011;7914;50.842;0.166;2022-10-16T05:18:44;1.20;;;1.20;;
15629;SDS011;7914;50.842;0.166;2022-10-16T05:21:10;1.10;;;1.10;;
15629;SDS011;7914;50.842;0.166;2022-10-16T05:23:36;1.20;;;1.20;;
15629;SDS011;7914;50.842;0.166;2022-10-16T05:26:01;1.20;;;1.20;;
15629;SDS011;7914;50.842;0.166;2022-10-16T05:28:27;1.20;;;1.20;;
15629;SDS011;7914;50.842;0.166;2022-10-16T05:30:55;1.20;;;1.20;;
15629;SDS011;7914;50.842;0.166;2022-10-16T05:33:21;1.10;;;1.10;;
15629;SDS011;7914;50.842;0.166;2022-10-16T05:35:49;1.20;;;1.20;;
15629;SDS011;7914;50.842;0.166;2022-10-16T05:38:16;1.20;;;1.20;;
15629;SDS011;7914;50.842;0.166;2022-10-16T05:40:43;1.23;;;1.23;;
15629;SDS011;7914;50.842;0.166;2022-10-16T05:43:15;1.13;;;1.13;;
15629;SDS011;7914;50.842;0.166;2022-10-16T05:45:41;1.10;;;1.10;;
15629;SDS011;7914;50.842;0.166;2022-10-16T05:48:06;1.20;;;1.20;;
15629;SDS011;7914;50.842;0.166;2022-10-16T05:50:32;1.20;;;1.20;;
15629;SDS011;7914;50.842;0.166;2022-10-16T05:52:58;1.10;;;1.10;;
15629;SDS011;7914;50.842;0.166;2022-10-16T05:55:23;1.10;;;1.10;;
15629;SDS011;7914;50.842;0.166;2022-10-16T05:57:49;1.10;;;1.10;;
15629;SDS011;7914;50.842;0.166;2022-10-16T06:00:15;0.93;;;0.93;;
15629;SDS011;7914;50.842;0.166;2022-10-16T06:02:40;1.10;;;1.10;;
15629;SDS011;7914;50.842;0.166;2022-10-16T06:05:06;0.90;;;0.90;;
15629;SDS011;7914;50.842;0.166;2022-10-16T06:07:33;1.00;;;1.00;;
15629;SDS011;7914;50.842;0.166;2022-10-16T06:10:03;1.00;;;1.00;;
15629;SDS011;7914;50.842;0.166;2022-10-16T06:12:29;0.97;;;0.97;;
15629;SDS011;7914;50.842;0.166;2022-10-16T06:14:55;1.07;;;1.07;;
15629;SDS011;7914;50.842;0.166;2022-10-16T06:17:21;1.10;;;1.10;;
15629;SDS011;7914;50.842;0.166;2022-10-16T06:19:46;1.10;;;1.10;;
15629;SDS011;7914;50.842;0.166;2022-10-16T06:22:12;1.10;;;1.10;;
15629;SDS011;7914;50.842;0.166;2022-10-16T06:24:37;1.00;;;1.00;;
15629;SDS011;7914;50.842;0.166;2022-10-16T06:27:03;1.00;;;1.00;;
15629;SDS011;7914;50.842;0.166;2022-10-16T06:29:29;1.10;;;1.10;;
15629;SDS011;7914;50.842;0.166;2022-10-16T06:31:55;1.20;;;1.20;;
15629;SDS011;7914;50.842;0.166;2022-10-16T06:34:21;1.00;;;1.00;;
15629;SDS011;7914;50.842;0.166;2022-10-16T06:36:47;1.10;;;1.10;;
15629;SDS011;7914;50.842;0.166;2022-10-16T06:39:12;1.10;;;1.10;;
15629;SDS011;7914;50.842;0.166;2022-10-16T06:41:38;1.00;;;1.00;;
15629;SDS011;7914;50.842;0.166;2022-10-16T06:44:06;1.10;;;1.10;;
15629;SDS011;7914;50.842;0.166;2022-10-16T06:46:33;1.10;;;1.10;;
15629;SDS011;7914;50.842;0.166;2022-10-16T06:48:59;1.20;;;1.20;;
15629;SDS011;7914;50.842;0.166;2022-10-16T06:51:25;1.10;;;1.10;;
15629;SDS011;7914;50.842;0.166;2022-10-16T06:53:54;1.20;;;1.20;;
15629;SDS011;7914;50.842;0.166;2022-10-16T06:56:25;1.10;;;1.10;;
15629;SDS011;7914;50.842;0.166;2022-10-16T06:58:52;1.20;;;1.20;;
15629;SDS011;7914;50.842;0.166;2022-10-16T07:01:18;1.20;;;1.20;;
15629;SDS011;7914;50.842;0.166;2022-10-16T07:03:46;1.10;;;1.10;;
15629;SDS011;7914;50.842;0.166;2022-10-16T07:06:13;1.00;;;1.00;;
15629;SDS011;7914;50.842;0.166;2022-10-16T07:08:41;1.00;;;1.00;;
15629;SDS011;7914;50.842;0.166;2022-10-16T07:11:09;1.13;;;1.13;;
15629;SDS011;7914;50.842;0.166;2022-10-16T07:13:37;1.10;;;1.10;;
15629;SDS011;7914;50.842;0.166;2022-10-16T07:16:04;1.10;;;1.10;;
15629;SDS011;7914;50.842;0.166;2022-10-16T07:18:38;1.13;;;1.13;;
15629;SDS011;7914;50.842;0.166;2022-10-16T07:21:09;1.20;;;1.20;;
15629;SDS011;7914;50.842;0.166;2022-10-16T07:23:36;1.10;;;1.10;;
15629;SDS011;7914;50.842;0.166;2022-10-16T07:26:03;1.20;;;1.20;;
15629;SDS011;7914;50.842;0.166;2022-10-16T07:28:29;1.20;;;1.20;;
15629;SDS011;7914;50.842;0.166;2022-10-16T07:30:59;1.30;;;1.30;;
15629;SDS011;7914;50.842;0.166;2022-10-16T07:33:29;1.30;;;1.30;;
15629;SDS011;7914;50.842;0.166;2022-10-16T07:35:55;1.20;;;1.20;;
15629;SDS011;7914;50.842;0.166;2022-10-16T07:38:21;1.20;;;1.20;;
15629;SDS011;7914;50.842;0.166;2022-10-16T07:40:47;1.20;;;1.20;;
15629;SDS011;7914;50.842;0.166;2022-10-16T07:43:13;1.20;;;1.20;;
15629;SDS011;7914;50.842;0.166;2022-10-16T07:45:49;1.17;;;1.17;;
15629;SDS011;7914;50.842;0.166;2022-10-16T07:48:15;1.23;;;1.23;;
15629;SDS011;7914;50.842;0.166;2022-10-16T07:50:42;1.20;;;1.20;;
15629;SDS011;7914;50.842;0.166;2022-10-16T07:53:09;1.27;;;1.27;;
15629;SDS011;7914;50.842;0.166;2022-10-16T07:55:34;1.20;;;1.20;;
15629;SDS011;7914;50.842;0.166;2022-10-16T07:58:00;1.30;;;1.30;;
15629;SDS011;7914;50.842;0.166;2022-10-16T08:00:26;1.40;;;1.40;;
15629;SDS011;7914;50.842;0.166;2022-10-16T08:02:51;1.20;;;1.20;;
15629;SDS011;7914;50.842;0.166;2022-10-16T08:05:17;1.33;;;1.33;;
15629;SDS011;7914;50.842;0.166;2022-10-16T08:07:43;1.40;;;1.40;;
15629;SDS011;7914;50.842;0.166;2022-10-16T08:10:17;1.20;;;1.20;;
15629;SDS011;7914;50.842;0.166;2022-10-16T08:12:44;1.33;;;1.33;;
15629;SDS011;7914;50.842;0.166;2022-10-16T08:15:10;1.40;;;1.40;;
15629;SDS011;7914;50.842;0.166;2022-10-16T08:17:36;1.30;;;1.30;;
15629;SDS011;7914;50.842;0.166;2022-10-16T08:20:02;1.30;;;1.30;;
15629;SDS011;7914;50.842;0.166;2022-10-16T08:22:28;1.40;;;1.40;;
15629;SDS011;7914;50.842;0.166;2022-10-16T08:24:54;1.40;;;1.40;;
15629;SDS011;7914;50.842;0.166;2022-10-16T08:27:20;1.30;;;1.30;;
15629;SDS011;7914;50.842;0.166;2022-10-16T08:29:45;1.30;;;1.30;;
15629;SDS011;7914;50.842;0.166;2022-10-16T08:32:11;1.27;;;1.27;;
15629;SDS011;7914;50.842;0.166;2022-10-16T08:34:37;1.30;;;1.30;;
15629;SDS011;7914;50.842;0.166;2022-10-16T08:37:02;1.30;;;1.30;;
15629;SDS011;7914;50.842;0.166;2022-10-16T08:39:28;1.20;;;1.20;;
15629;SDS011;7914;50.842;0.166;2022-10-16T08:42:09;1.20;;;1.20;;
15629;SDS011;7914;50.842;0.166;2022-10-16T08:45:01;1.33;;;1.33;;
15629;SDS011;7914;50.842;0.166;2022-10-16T08:50:14;1.30;;;1.30;;
15629;SDS011;7914;50.842;0.166;2022-10-16T08:52:46;1.20;;;1.20;;
15629;SDS011;7914;50.842;0.166;2022-10-16T08:55:19;1.20;;;1.20;;
15629;SDS011;7914;50.842;0.166;2022-10-16T08:57:59;1.20;;;1.20;;
15629;SDS011;7914;50.842;0.166;2022-10-16T09:00:25;1.30;;;1.30;;
15629;SDS011;7914;50.842;0.166;2022-10-16T09:03:00;1.20;;;1.20;;
15629;SDS011;7914;50.842;0.166;2022-10-16T09:08:28;1.00;;;1.00;;
15629;SDS011;7914;50.842;0.166;2022-10-16T09:11:25;1.07;;;1.07;;
15629;SDS011;7914;50.842;0.166;2022-10-16T09:16:47;1.00;;;1.00;;
15629;SDS011;7914;50.842;0.166;2022-10-16T09:19:24;1.00;;;1.00;;
15629;SDS011;7914;50.842;0.166;2022-10-16T09:21:57;1.10;;;1.10;;
15629;SDS011;7914;50.842;0.166;2022-10-16T09:24:27;0.90;;;0.90;;
15629;SDS011;7914;50.842;0.166;2022-10-16T09:26:52;0.90;;;0.90;;
15629;SDS011;7914;50.842;0.166;2022-10-16T09:29:20;0.80;;;0.80;;
15629;SDS011;7914;50.842;0.166;2022-10-16T09:31:50;0.80;;;0.80;;
15629;SDS011;7914;50.842;0.166;2022-10-16T09:34:39;0.80;;;0.80;;
15629;SDS011;7914;50.842;0.166;2022-10-16T09:37:11;0.87;;;0.87;;
15629;SDS011;7914;50.842;0.166;2022-10-16T09:42:19;0.80;;;0.80;;
15629;SDS011;7914;50.842;0.166;2022-10-16T09:44:51;0.80;;;0.80;;
15629;SDS011;7914;50.842;0.166;2022-10-16T09:47:20;0.90;;;0.90;;
15629;SDS011;7914;50.842;0.166;2022-10-16T09:52:20;0.73;;;0.73;;
15629;SDS011;7914;50.842;0.166;2022-10-16T09:54:53;0.80;;;0.80;;
15629;SDS011;7914;50.842;0.166;2022-10-16T09:57:23;0.80;;;0.80;;
15629;SDS011;7914;50.842;0.166;2022-10-16T09:59:51;0.87;;;0.87;;
15629;SDS011;7914;50.842;0.166;2022-10-16T10:02:19;0.87;;;0.87;;
15629;SDS011;7914;50.842;0.166;2022-10-16T10:04:53;0.80;;;0.80;;
15629;SDS011;7914;50.842;0.166;2022-10-16T10:09:52;0.90;;;0.90;;
15629;SDS011;7914;50.842;0.166;2022-10-16T10:12:20;0.80;;;0.80;;
15629;SDS011;7914;50.842;0.166;2022-10-16T10:14:49;0.80;;;0.80;;
15629;SDS011;7914;50.842;0.166;2022-10-16T10:17:18;0.90;;;0.90;;
15629;SDS011;7914;50.842;0.166;2022-10-16T10:24:54;0.90;;;0.90;;
15629;SDS011;7914;50.842;0.166;2022-10-16T10:27:29;0.80;;;0.80;;
15629;SDS011;7914;50.842;0.166;2022-10-16T10:40:45;0.90;;;0.90;;
15629;SDS011;7914;50.842;0.166;2022-10-16T10:46:03;0.90;;;0.90;;
15629;SDS011;7914;50.842;0.166;2022-10-16T10:51:18;0.90;;;0.90;;
15629;SDS011;7914;50.842;0.166;2022-10-16T10:59:53;0.90;;;0.90;;
15629;SDS011;7914;50.842;0.166;2022-10-16T11:08:52;0.80;;;0.80;;
15629;SDS011;7914;50.842;0.166;2022-10-16T11:16:52;0.93;;;0.93;;
15629;SDS011;7914;50.842;0.166;2022-10-16T11:27:50;0.90;;;0.90;;
15629;SDS011;7914;50.842;0.166;2022-10-16T11:30:25;0.90;;;0.90;;
15629;SDS011;7914;50.842;0.166;2022-10-16T11:35:52;0.90;;;0.90;;
15629;SDS011;7914;50.842;0.166;2022-10-16T11:40:53;0.90;;;0.90;;
15629;SDS011;7914;50.842;0.166;2022-10-16T11:43:35;0.90;;;0.90;;
15629;SDS011;7914;50.842;0.166;2022-10-16T11:46:11;1.00;;;1.00;;
15629;SDS011;7914;50.842;0.166;2022-10-16T11:48:46;0.90;;;0.90;;
15629;SDS011;7914;50.842;0.166;2022-10-16T11:54:28;0.90;;;0.90;;
15629;SDS011;7914;50.842;0.166;2022-10-16T11:57:08;0.90;;;0.90;;
15629;SDS011;7914;50.842;0.166;2022-10-16T11:59:44;1.00;;;1.00;;
15629;SDS011;7914;50.842;0.166;2022-10-16T12:02:35;0.90;;;0.90;;
15629;SDS011;7914;50.842;0.166;2022-10-16T12:07:49;0.90;;;0.90;;
15629;SDS011;7914;50.842;0.166;2022-10-16T12:10:23;0.90;;;0.90;;
15629;SDS011;7914;50.842;0.166;2022-10-16T12:12:51;0.90;;;0.90;;
15629;SDS011;7914;50.842;0.166;2022-10-16T12:15:19;0.87;;;0.87;;
15629;SDS011;7914;50.842;0.166;2022-10-16T12:17:54;0.90;;;0.90;;
15629;SDS011;7914;50.842;0.166;2022-10-16T12:20:27;0.70;;;0.70;;
15629;SDS011;7914;50.842;0.166;2022-10-16T12:23:00;0.80;;;0.80;;
15629;SDS011;7914;50.842;0.166;2022-10-16T12:25:34;0.90;;;0.90;;
15629;SDS011;7914;50.842;0.166;2022-10-16T12:28:15;0.90;;;0.90;;
15629;SDS011;7914;50.842;0.166;2022-10-16T12:33:22;0.80;;;0.80;;
15629;SDS011;7914;50.842;0.166;2022-10-16T12:35:52;0.90;;;0.90;;
15629;SDS011;7914;50.842;0.166;2022-10-16T12:38:38;0.90;;;0.90;;
15629;SDS011;7914;50.842;0.166;2022-10-16T12:41:24;0.80;;;0.80;;
15629;SDS011;7914;50.842;0.166;2022-10-16T12:43:55;0.87;;;0.87;;
15629;SDS011;7914;50.842;0.166;2022-10-16T12:46:23;0.83;;;0.83;;
15629;SDS011;7914;50.842;0.166;2022-10-16T12:49:15;0.80;;;0.80;;
15629;SDS011;7914;50.842;0.166;2022-10-16T12:51:53;0.90;;;0.90;;
15629;SDS011;7914;50.842;0.166;2022-10-16T12:54:21;0.80;;;0.80;;
15629;SDS011;7914;50.842;0.166;2022-10-16T12:59:50;0.80;;;0.80;;
15629;SDS011;7914;50.842;0.166;2022-10-16T13:02:34;0.80;;;0.80;;
15629;SDS011;7914;50.842;0.166;2022-10-16T13:08:01;0.90;;;0.90;;
15629;SDS011;7914;50.842;0.166;2022-10-16T13:13:39;0.90;;;0.90;;
15629;SDS011;7914;50.842;0.166;2022-10-16T13:27:18;0.90;;;0.90;;
15629;SDS011;7914;50.842;0.166;2022-10-16T13:29:54;0.90;;;0.90;;
15629;SDS011;7914;50.842;0.166;2022-10-16T13:32:37;0.90;;;0.90;;
15629;SDS011;7914;50.842;0.166;2022-10-16T13:35:15;1.00;;;1.00;;
15629;SDS011;7914;50.842;0.166;2022-10-16T13:37:45;0.90;;;0.90;;
15629;SDS011;7914;50.842;0.166;2022-10-16T13:40:18;1.10;;;1.10;;
15629;SDS011;7914;50.842;0.166;2022-10-16T13:42:49;1.20;;;1.20;;
15629;SDS011;7914;50.842;0.166;2022-10-16T13:45:25;1.10;;;1.10;;
15629;SDS011;7914;50.842;0.166;2022-10-16T13:48:03;1.03;;;1.03;;
15629;SDS011;7914;50.842;0.166;2022-10-16T13:50:30;1.00;;;1.00;;
15629;SDS011;7914;50.842;0.166;2022-10-16T13:53:06;1.20;;;1.20;;
15629;SDS011;7914;50.842;0.166;2022-10-16T13:55:37;1.00;;;1.00;;
15629;SDS011;7914;50.842;0.166;2022-10-16T13:58:12;1.07;;;1.07;;
15629;SDS011;7914;50.842;0.166;2022-10-16T14:00:38;1.10;;;1.10;;
15629;SDS011;7914;50.842;0.166;2022-10-16T14:03:07;1.00;;;1.00;;
15629;SDS011;7914;50.842;0.166;2022-10-16T14:05:49;1.00;;;1.00;;
15629;SDS011;7914;50.842;0.166;2022-10-16T14:08:17;1.00;;;1.00;;
15629;SDS011;7914;50.842;0.166;2022-10-16T14:10:46;1.13;;;1.13;;
15629;SDS011;7914;50.842;0.166;2022-10-16T14:13:15;1.10;;;1.10;;
15629;SDS011;7914;50.842;0.166;2022-10-16T14:15:48;0.90;;;0.90;;
15629;SDS011;7914;50.842;0.166;2022-10-16T14:18:18;1.07;;;1.07;;
15629;SDS011;7914;50.842;0.166;2022-10-16T14:20:46;1.10;;;1.10;;
15629;SDS011;7914;50.842;0.166;2022-10-16T14:23:18;1.10;;;1.10;;
15629;SDS011;7914;50.842;0.166;2022-10-16T14:25:48;1.10;;;1.10;;
15629;SDS011;7914;50.842;0.166;2022-10-16T14:33:23;1.03;;;1.03;;
15629;SDS011;7914;50.842;0.166;2022-10-16T14:38:34;1.00;;;1.00;;
15629;SDS011;7914;50.842;0.166;2022-10-16T14:41:00;1.00;;;1.00;;
15629;SDS011;7914;50.842;0.166;2022-10-16T14:43:36;1.00;;;1.00;;
15629;SDS011;7914;50.842;0.166;2022-10-16T14:46:14;1.00;;;1.00;;
15629;SDS011;7914;50.842;0.166;2022-10-16T14:48:43;1.00;;;1.00;;
15629;SDS011;7914;50.842;0.166;2022-10-16T14:51:16;0.97;;;0.97;;
15629;SDS011;7914;50.842;0.166;2022-10-16T14:53:42;1.00;;;1.00;;
15629;SDS011;7914;50.842;0.166;2022-10-16T14:56:09;1.00;;;1.00;;
15629;SDS011;7914;50.842;0.166;2022-10-16T14:58:42;1.00;;;1.00;;
15629;SDS011;7914;50.842;0.166;2022-10-16T15:01:09;1.00;;;1.00;;
15629;SDS011;7914;50.842;0.166;2022-10-16T15:03:36;1.00;;;1.00;;
15629;SDS011;7914;50.842;0.166;2022-10-16T15:06:01;0.90;;;0.90;;
15629;SDS011;7914;50.842;0.166;2022-10-16T15:08:27;0.90;;;0.90;;
15629;SDS011;7914;50.842;0.166;2022-10-16T15:10:53;1.10;;;1.10;;
15629;SDS011;7914;50.842;0.166;2022-10-16T15:13:18;1.03;;;1.03;;
15629;SDS011;7914;50.842;0.166;2022-10-16T15:15:44;1.10;;;1.10;;
15629;SDS011;7914;50.842;0.166;2022-10-16T15:18:11;1.27;;;1.27;;
15629;SDS011;7914;50.842;0.166;2022-10-16T15:20:39;1.10;;;1.10;;
15629;SDS011;7914;50.842;0.166;2022-10-16T15:23:15;1.30;;;1.30;;
15629;SDS011;7914;50.842;0.166;2022-10-16T15:25:53;1.20;;;1.20;;
15629;SDS011;7914;50.842;0.166;2022-10-16T15:28:20;1.13;;;1.13;;
15629;SDS011;7914;50.842;0.166;2022-10-16T15:30:49;1.30;;;1.30;;
15629;SDS011;7914;50.842;0.166;2022-10-16T15:33:17;1.20;;;1.20;;
15629;SDS011;7914;50.842;0.166;2022-10-16T15:35:53;1.30;;;1.30;;
15629;SDS011;7914;50.842;0.166;2022-10-16T15:38:20;1.30;;;1.30;;
15629;SDS011;7914;50.842;0.166;2022-10-16T15:40:47;1.40;;;1.40;;
15629;SDS011;7914;50.842;0.166;2022-10-16T15:43:14;1.40;;;1.40;;
15629;SDS011;7914;50.842;0.166;2022-10-16T15:45:40;1.50;;;1.50;;
15629;SDS011;7914;50.842;0.166;2022-10-16T15:48:05;1.50;;;1.50;;
15629;SDS011;7914;50.842;0.166;2022-10-16T15:50:34;1.60;;;1.60;;
15629;SDS011;7914;50.842;0.166;2022-10-16T15:53:02;1.70;;;1.70;;
15629;SDS011;7914;50.842;0.166;2022-10-16T15:55:28;1.60;;;1.60;;
15629;SDS011;7914;50.842;0.166;2022-10-16T15:57:54;1.70;;;1.70;;
15629;SDS011;7914;50.842;0.166;2022-10-16T16:00:20;1.70;;;1.70;;
15629;SDS011;7914;50.842;0.166;2022-10-16T16:02:50;1.70;;;1.70;;
15629;SDS011;7914;50.842;0.166;2022-10-16T16:05:17;2.00;;;1.90;;
15629;SDS011;7914;50.842;0.166;2022-10-16T16:07:43;1.80;;;1.80;;
15629;SDS011;7914;50.842;0.166;2022-10-16T16:10:10;2.00;;;1.90;;
15629;SDS011;7914;50.842;0.166;2022-10-16T16:12:36;1.90;;;1.90;;
15629;SDS011;7914;50.842;0.166;2022-10-16T16:15:06;1.90;;;1.90;;
15629;SDS011;7914;50.842;0.166;2022-10-16T16:17:34;2.10;;;2.00;;
15629;SDS011;7914;50.842;0.166;2022-10-16T16:20:00;2.30;;;2.20;;
15629;SDS011;7914;50.842;0.166;2022-10-16T16:22:26;2.50;;;2.40;;
15629;SDS011;7914;50.842;0.166;2022-10-16T16:24:52;2.40;;;2.30;;
15629;SDS011;7914;50.842;0.166;2022-10-16T16:27:18;2.50;;;2.40;;
15629;SDS011;7914;50.842;0.166;2022-10-16T16:29:44;2.40;;;2.30;;
15629;SDS011;7914;50.842;0.166;2022-10-16T16:32:11;2.50;;;2.40;;
15629;SDS011;7914;50.842;0.166;2022-10-16T16:34:36;2.40;;;2.30;;
15629;SDS011;7914;50.842;0.166;2022-10-16T16:37:02;2.70;;;2.60;;
15629;SDS011;7914;50.842;0.166;2022-10-16T16:39:28;2.87;;;2.77;;
15629;SDS011;7914;50.842;0.166;2022-10-16T16:41:55;3.37;;;3.27;;
15629;SDS011;7914;50.842;0.166;2022-10-16T16:44:21;3.30;;;3.20;;
15629;SDS011;7914;50.842;0.166;2022-10-16T16:46:47;3.20;;;3.10;;
15629;SDS011;7914;50.842;0.166;2022-10-16T16:49:13;3.17;;;3.07;;
15629;SDS011;7914;50.842;0.166;2022-10-16T16:51:40;3.20;;;3.10;;
15629;SDS011;7914;50.842;0.166;2022-10-16T16:54:06;3.20;;;3.10;;
15629;SDS011;7914;50.842;0.166;2022-10-16T16:56:33;3.20;;;3.10;;
15629;SDS011;7914;50.842;0.166;2022-10-16T16:58:59;3.10;;;3.00;;
15629;SDS011;7914;50.842;0.166;2022-10-16T17:01:25;2.90;;;2.80;;
15629;SDS011;7914;50.842;0.166;2022-10-16T17:03:53;3.00;;;2.90;;
15629;SDS011;7914;50.842;0.166;2022-10-16T17:06:20;3.10;;;3.00;;
15629;SDS011;7914;50.842;0.166;2022-10-16T17:08:48;2.90;;;2.80;;
15629;SDS011;7914;50.842;0.166;2022-10-16T17:11:17;2.60;;;2.50;;
15629;SDS011;7914;50.842;0.166;2022-10-16T17:13:45;2.60;;;2.50;;
15629;SDS011;7914;50.842;0.166;2022-10-16T17:16:12;2.90;;;2.80;;
15629;SDS011;7914;50.842;0.166;2022-10-16T17:18:37;2.83;;;2.73;;
15629;SDS011;7914;50.842;0.166;2022-10-16T17:21:05;2.83;;;2.73;;